Wimauma, FL

9:18 AM EST on December 11, 2019 (GMT -0500)
Wimauma | | Change Station
Active Advisory: Dense Fog Advisory

Elev 82 ft 27.73 °N, 82.33 °W | Updated 2 minutes ago

Overcast
Overcast
72.1 °F
Feels Like 72.1 °F
N
0
Wind Variable Wind from North
Gusts 0.0 mph

Today
High -- | Low -- °F
--% Chance of Precip.
Yesterday
High -- | Low -- °F
Precip. -- in
Pressure 30.17 in
Visibility 0.2 miles
Clouds
Dew Point 70 °F
Humidity 93%
Rainfall 0.00 in
Snow Depth Not available.
7:09 AM 5:35 PM
Full, 100% visible
SPECI KSPG 111321Z 00000KT 1/4SM FG VV003 21/21 A3017 RMK AO2 T02060206
Pressure 30.17 in
Visibility 0.2 miles
Clouds
Dew Point 70 °F
Humidity 93%
Rainfall 0.00 in
Snow Depth Not available.
7:09 AM 5:35 PM
Full, 100% visible
SPECI KSPG 111321Z 00000KT 1/4SM FG VV003 21/21 A3017 RMK AO2 T02060206

Get Your Daily Forecast Email!

Thanks for signing up!

Be on the lookout for a verification email in your inbox.

You'll start receiving severe weather alerts in your inbox..

×

10-Day Weather Forecast

Almanac

Astronomy

Dec. 11, 2019 Rise Set
Actual Time
Civil Twilight
Nautical Twilight
Astronomical Twilight
Moon
Length of Visible Light
Length of Day
Tomorrow will be .
, % of the Moon is Illuminated

Today's Extremes

State Highs State Lows

Community

WunderPhotos

Category 6

Welcome to Category 6. This is the collective home for Weather Underground's featured writeups by Dr. Jeff Masters (right), Bob Henson (left), Chris Burt, and other regular contributors.

Nearby

Air Quality

  Air Quality AQ Index Pollutant
Not available.

Snow Depth

Station Depth Elevation

Earthquake Activity

City Distance Mag. Time & Date
Minimum magnitude displayed is 2.5.

Coastal Water Temperatures

Place Temperature

Stations

Nearby Weather Stations

Station Location Temp. Windchill Dew Point Humidity Wind Precip. Elev Updated Type
                   

Watches & Warnings

Dense Fog Advisory
Issued: 8:59 AM EST Dec. 11, 2019 – National Weather Service

... Dense fog advisory now in effect until 10 am EST this
morning...

* what... visibility one quarter to one half mile in dense fog.

* Where... portions of southwest and west central Florida.

* When... until 10 am EST this morning.

* Impacts... hazardous driving conditions due to low visibility.

Precautionary/preparedness actions...

If driving, slow down, use your headlights, and leave plenty of
distance ahead of you.



For more information from the National Weather Service visit
https://weather.Gov/Tampa